createdAt,value
2023-08-15T00:02:06.776Z,2.37
2023-08-15T00:04:37.169Z,3.50
2023-08-15T00:07:07.490Z,3.43
2023-08-15T00:09:35.442Z,2.90
2023-08-15T00:12:02.753Z,2.70
2023-08-15T00:14:30.436Z,2.90
2023-08-15T00:16:57.959Z,2.77
2023-08-15T00:19:26.838Z,3.17
2023-08-15T00:21:57.063Z,2.00
2023-08-15T00:24:24.310Z,2.20
2023-08-15T00:26:52.118Z,1.73
2023-08-15T00:29:19.634Z,1.47
2023-08-15T00:31:47.029Z,2.30
2023-08-15T00:34:14.468Z,0.60
2023-08-15T00:36:41.986Z,0.50
2023-08-15T00:39:09.437Z,3.13
2023-08-15T00:41:38.115Z,2.50
2023-08-15T00:44:05.539Z,2.43
2023-08-15T00:46:33.385Z,2.83
2023-08-15T00:49:01.642Z,2.77
2023-08-15T00:51:29.326Z,6.63
2023-08-15T00:53:56.608Z,2.70
2023-08-15T00:56:24.086Z,2.20
2023-08-15T00:58:51.803Z,1.20
2023-08-15T01:01:19.736Z,1.20
2023-08-15T01:03:48.517Z,1.03
2023-08-15T01:06:16.258Z,0.50
2023-08-15T01:08:44.299Z,0.70
2023-08-15T01:11:11.829Z,0.80
2023-08-15T01:13:38.998Z,1.43
2023-08-15T01:16:15.487Z,2.30
2023-08-15T01:19:03.882Z,0.80
2023-08-15T01:21:36.023Z,2.80
2023-08-15T01:24:04.510Z,3.03
2023-08-15T01:26:31.796Z,2.97
2023-08-15T01:28:59.018Z,3.43
2023-08-15T01:31:45.804Z,3.60
2023-08-15T01:34:20.326Z,0.60
2023-08-15T01:36:54.850Z,0.60
2023-08-15T01:39:24.964Z,2.70
2023-08-15T01:41:52.922Z,2.50
2023-08-15T01:44:21.027Z,1.93
2023-08-15T01:46:48.980Z,1.23
2023-08-15T01:49:17.030Z,0.63
2023-08-15T01:51:44.571Z,0.60
2023-08-15T01:54:12.157Z,0.70
2023-08-15T01:56:39.400Z,0.70
2023-08-15T01:59:07.268Z,2.30
2023-08-15T02:01:34.555Z,3.20
2023-08-15T02:04:01.849Z,3.17
2023-08-15T02:06:29.365Z,4.20
2023-08-15T02:08:56.778Z,3.40
2023-08-15T02:11:24.485Z,2.10
2023-08-15T02:13:51.736Z,1.87
2023-08-15T02:16:19.570Z,1.03
2023-08-15T02:18:47.546Z,1.00
2023-08-15T02:21:14.970Z,0.60
2023-08-15T02:23:42.438Z,0.73
2023-08-15T02:26:09.876Z,1.63
2023-08-15T02:28:38.088Z,1.67
2023-08-15T02:31:06.770Z,2.70
2023-08-15T02:33:34.802Z,3.80
2023-08-15T02:36:08.461Z,3.67
2023-08-15T02:38:36.575Z,2.60
2023-08-15T02:41:03.955Z,3.50
2023-08-15T02:43:31.467Z,3.43
2023-08-15T02:45:58.865Z,4.70
2023-08-15T02:48:26.386Z,3.77
2023-08-15T02:50:54.028Z,2.40
2023-08-15T02:53:21.609Z,3.30
2023-08-15T02:55:52.664Z,3.97
2023-08-15T02:58:20.183Z,1.00
2023-08-15T03:00:47.865Z,2.43
2023-08-15T03:03:15.585Z,0.60
2023-08-15T03:05:43.240Z,0.60
2023-08-15T03:08:10.994Z,0.60
2023-08-15T03:10:40.508Z,1.63
2023-08-15T03:13:07.617Z,1.47
2023-08-15T03:15:35.988Z,3.53
2023-08-15T03:18:03.855Z,3.33
2023-08-15T03:20:31.368Z,3.87
2023-08-15T03:22:58.715Z,4.20
2023-08-15T03:25:26.183Z,4.93
2023-08-15T03:27:53.566Z,3.50
2023-08-15T03:30:20.854Z,1.40
2023-08-15T03:32:49.563Z,0.70
2023-08-15T03:35:17.704Z,0.60
2023-08-15T03:37:46.103Z,0.70
2023-08-15T03:40:13.763Z,0.70
2023-08-15T03:42:41.099Z,0.60
2023-08-15T03:45:08.887Z,1.33
2023-08-15T03:47:36.194Z,4.70
2023-08-15T03:50:03.630Z,3.70
2023-08-15T03:52:34.216Z,3.83
2023-08-15T03:55:02.173Z,3.53
2023-08-15T03:57:29.705Z,4.30
2023-08-15T03:59:57.240Z,3.63
2023-08-15T04:02:24.768Z,2.50
2023-08-15T04:04:52.044Z,2.10
2023-08-15T04:07:20.051Z,1.10
2023-08-15T04:09:47.660Z,0.60
2023-08-15T04:12:14.897Z,0.83
2023-08-15T04:14:42.179Z,0.80
2023-08-15T04:17:09.552Z,0.70
2023-08-15T04:19:37.035Z,2.40
2023-08-15T04:22:04.653Z,4.23
2023-08-15T04:24:32.105Z,3.63
2023-08-15T04:27:01.117Z,3.90
2023-08-15T04:29:28.467Z,6.17
2023-08-15T04:31:56.022Z,4.50
2023-08-15T04:34:23.719Z,2.70
2023-08-15T04:36:51.151Z,1.30
2023-08-15T04:39:20.219Z,1.00
2023-08-15T04:41:47.701Z,0.70
2023-08-15T04:44:15.618Z,0.70
2023-08-15T04:46:43.189Z,0.60
2023-08-15T04:49:12.593Z,0.70
2023-08-15T04:51:39.998Z,1.00
2023-08-15T04:54:07.485Z,2.10
2023-08-15T04:56:34.848Z,3.63
2023-08-15T04:59:02.484Z,3.13
2023-08-15T05:01:29.963Z,4.30
2023-08-15T05:03:57.368Z,4.10
2023-08-15T05:06:24.778Z,2.40
2023-08-15T05:08:52.151Z,2.47
2023-08-15T05:11:19.647Z,1.17
2023-08-15T05:13:47.479Z,0.70
2023-08-15T05:16:15.241Z,0.93
2023-08-15T05:18:44.040Z,1.13
2023-08-15T05:21:11.400Z,0.70
2023-08-15T05:23:38.989Z,1.57
2023-08-15T05:26:06.269Z,2.47
2023-08-15T05:28:34.106Z,3.53
2023-08-15T05:31:01.479Z,3.10
2023-08-15T05:33:29.284Z,5.20
2023-08-15T05:35:56.577Z,3.53
2023-08-15T05:38:23.977Z,2.80
2023-08-15T05:40:51.695Z,1.30
2023-08-15T05:43:19.582Z,0.80
2023-08-15T05:45:50.995Z,0.80
2023-08-15T05:48:18.645Z,0.80
2023-08-15T05:50:46.915Z,1.20
2023-08-15T05:53:14.482Z,0.70
2023-08-15T05:55:44.308Z,1.00
2023-08-15T05:58:11.995Z,0.70
2023-08-15T06:00:40.371Z,1.10
2023-08-15T06:03:08.186Z,1.93
2023-08-15T06:05:35.630Z,3.00
2023-08-15T06:08:02.984Z,3.50
2023-08-15T06:10:30.500Z,3.13
2023-08-15T06:12:58.116Z,3.50
2023-08-15T06:15:26.422Z,3.67
2023-08-15T06:17:54.573Z,2.43
2023-08-15T06:20:22.022Z,1.30
2023-08-15T06:22:50.698Z,1.00
2023-08-15T06:25:18.226Z,1.87
2023-08-15T06:27:46.030Z,0.97
2023-08-15T06:30:13.989Z,0.77
2023-08-15T06:32:44.542Z,1.63
2023-08-15T06:35:14.512Z,0.70
2023-08-15T06:37:57.254Z,0.90
2023-08-15T06:40:29.044Z,3.00
2023-08-15T06:42:58.085Z,3.07
2023-08-15T06:45:26.087Z,3.23
2023-08-15T06:47:54.515Z,2.67
2023-08-15T06:50:23.389Z,1.83
2023-08-15T06:52:51.006Z,1.50
2023-08-15T06:55:18.907Z,0.70
2023-08-15T06:57:46.751Z,0.90
2023-08-15T07:00:15.154Z,0.80
2023-08-15T07:02:43.001Z,1.00
2023-08-15T07:08:19.389Z,1.07
2023-08-15T07:10:47.180Z,1.10
2023-08-15T07:13:14.863Z,0.60
2023-08-15T07:15:42.622Z,1.53
2023-08-15T07:18:10.181Z,0.80
2023-08-15T07:20:39.141Z,1.90
2023-08-15T07:23:08.974Z,1.97
2023-08-15T07:25:41.943Z,2.50
2023-08-15T07:28:09.642Z,0.93
2023-08-15T07:30:37.189Z,2.30
2023-08-15T07:33:04.921Z,3.23
2023-08-15T07:35:32.264Z,3.00
2023-08-15T07:38:01.844Z,5.70
2023-08-15T07:40:29.650Z,3.60
2023-08-15T07:42:57.453Z,2.93
2023-08-15T07:45:24.976Z,2.00
2023-08-15T07:47:57.620Z,2.10
2023-08-15T07:50:27.886Z,2.17
2023-08-15T07:52:56.198Z,2.67
2023-08-15T07:55:23.740Z,2.40
2023-08-15T07:57:51.155Z,1.40
2023-08-15T08:00:19.744Z,0.80
2023-08-15T08:02:47.322Z,0.83
2023-08-15T08:05:18.193Z,0.80
2023-08-15T08:07:47.232Z,1.10
2023-08-15T08:10:14.976Z,1.63
2023-08-15T08:12:42.508Z,1.43
2023-08-15T08:15:10.494Z,1.37
2023-08-15T08:17:37.941Z,3.80
2023-08-15T08:20:18.682Z,2.40
2023-08-15T08:22:48.121Z,1.20
2023-08-15T08:25:25.931Z,0.70
2023-08-15T08:27:53.304Z,2.07
2023-08-15T08:30:22.510Z,1.20
2023-08-15T08:32:52.413Z,1.27
2023-08-15T08:35:20.300Z,1.13
2023-08-15T08:37:48.899Z,0.90
2023-08-15T08:40:18.903Z,0.80
2023-08-15T08:42:47.845Z,0.70
2023-08-15T08:45:15.850Z,0.70
2023-08-15T08:47:43.652Z,0.80
2023-08-15T08:50:12.192Z,0.70
2023-08-15T08:52:50.277Z,0.80
2023-08-15T08:55:19.384Z,0.70
2023-08-15T08:57:50.809Z,0.80
2023-08-15T09:00:19.585Z,0.70
2023-08-15T09:02:47.222Z,0.60
2023-08-15T09:05:14.642Z,1.63
2023-08-15T09:07:43.618Z,0.60
2023-08-15T09:10:11.420Z,0.60
2023-08-15T09:12:40.483Z,1.13
2023-08-15T09:15:10.287Z,1.63
2023-08-15T09:17:41.758Z,1.27
2023-08-15T09:20:14.130Z,0.90
2023-08-15T09:22:47.216Z,0.60
2023-08-15T09:25:21.660Z,0.70
2023-08-15T09:27:49.236Z,0.70
2023-08-15T09:30:18.600Z,1.13
2023-08-15T09:32:47.383Z,0.60
2023-08-15T09:35:16.894Z,0.70
2023-08-15T09:37:49.284Z,0.70
2023-08-15T09:40:19.017Z,0.60
2023-08-15T09:42:47.486Z,0.60
2023-08-15T09:45:15.850Z,0.70
2023-08-15T09:47:45.137Z,0.70
2023-08-15T09:50:14.829Z,0.60
2023-08-15T09:52:48.536Z,0.83
2023-08-15T09:55:18.748Z,0.60
2023-08-15T09:57:47.632Z,0.70
2023-08-15T10:00:19.110Z,0.60
2023-08-15T10:02:54.091Z,0.70
2023-08-15T10:05:23.436Z,1.20
2023-08-15T10:07:51.622Z,1.10
2023-08-15T10:10:19.636Z,0.80
2023-08-15T10:12:48.951Z,0.73
2023-08-15T10:15:17.898Z,0.70
2023-08-15T10:17:45.986Z,0.80
2023-08-15T10:20:18.873Z,1.43
2023-08-15T10:22:46.608Z,0.70
2023-08-15T10:25:26.166Z,0.70
2023-08-15T10:27:55.651Z,2.90
2023-08-15T10:30:37.791Z,2.57
2023-08-15T10:33:16.916Z,2.40
2023-08-15T10:35:51.419Z,0.70
2023-08-15T10:38:21.552Z,0.70
2023-08-15T10:40:56.626Z,0.73
2023-08-15T10:43:27.297Z,1.63
2023-08-15T10:46:06.085Z,2.03
2023-08-15T10:49:00.090Z,2.57
2023-08-15T10:51:32.162Z,2.80
2023-08-15T10:54:02.482Z,2.93
2023-08-15T10:56:34.854Z,2.40
2023-08-15T10:59:08.331Z,2.93
2023-08-15T11:01:42.030Z,2.20
2023-08-15T11:04:20.804Z,0.90
2023-08-15T11:06:54.010Z,0.80
2023-08-15T11:09:33.177Z,1.00
2023-08-15T11:12:09.029Z,2.50
2023-08-15T11:14:36.476Z,2.10
2023-08-15T11:17:03.763Z,2.20
2023-08-15T11:19:31.181Z,2.23
2023-08-15T11:21:59.479Z,2.73
2023-08-15T11:24:32.849Z,2.80
2023-08-15T11:27:00.830Z,2.30
2023-08-15T11:29:28.498Z,2.53
2023-08-15T11:32:00.355Z,2.13
2023-08-15T11:34:27.738Z,2.50
2023-08-15T11:36:55.684Z,1.77
2023-08-15T11:39:25.425Z,2.20
2023-08-15T11:41:52.980Z,3.80
2023-08-15T11:44:23.580Z,1.00
2023-08-15T11:46:54.602Z,1.20
2023-08-15T11:49:23.915Z,1.67
2023-08-15T11:51:51.739Z,0.90
2023-08-15T11:54:19.442Z,0.50
2023-08-15T11:56:54.176Z,0.70
2023-08-15T11:59:23.910Z,0.90
2023-08-15T12:01:52.713Z,1.00
2023-08-15T12:04:21.141Z,1.00
2023-08-15T12:06:49.288Z,0.77
2023-08-15T12:09:17.597Z,0.60
2023-08-15T12:11:45.181Z,0.60
2023-08-15T12:14:22.719Z,0.60
2023-08-15T12:16:50.309Z,3.03
2023-08-15T12:19:21.794Z,0.57
2023-08-15T12:21:53.187Z,0.80
2023-08-15T12:24:22.274Z,0.97
2023-08-15T12:26:49.640Z,0.77
2023-08-15T12:29:18.512Z,0.50
2023-08-15T12:31:47.168Z,0.60
2023-08-15T12:34:14.835Z,0.93
2023-08-15T12:37:00.877Z,0.67
2023-08-15T12:39:28.446Z,4.10
2023-08-15T12:41:56.071Z,1.87
2023-08-15T12:44:23.678Z,2.40
2023-08-15T12:49:27.606Z,0.60
2023-08-15T12:51:58.045Z,0.50
2023-08-15T12:54:26.758Z,0.50
2023-08-15T12:56:59.540Z,0.60
2023-08-15T12:59:27.062Z,1.60
2023-08-15T13:01:55.672Z,0.60
2023-08-15T13:04:23.061Z,0.50
2023-08-15T13:06:50.357Z,0.60
2023-08-15T13:09:17.985Z,0.50
2023-08-15T13:11:46.192Z,0.50
2023-08-15T13:14:13.720Z,0.50
2023-08-15T13:16:41.486Z,0.87
2023-08-15T13:19:08.832Z,0.60
2023-08-15T13:21:36.274Z,0.50
2023-08-15T13:24:04.221Z,0.60
2023-08-15T13:26:31.592Z,1.07
2023-08-15T13:29:00.722Z,0.50
2023-08-15T13:31:28.139Z,0.53
2023-08-15T13:33:55.916Z,0.80
2023-08-15T13:36:23.321Z,0.60
2023-08-15T13:38:50.840Z,0.50
2023-08-15T13:41:18.457Z,1.27
2023-08-15T13:43:45.761Z,0.60
2023-08-15T13:46:13.113Z,0.50
2023-08-15T13:48:41.222Z,0.50
2023-08-15T13:51:19.269Z,1.27
2023-08-15T13:53:49.956Z,0.50
2023-08-15T13:56:17.948Z,0.77
2023-08-15T13:58:45.621Z,0.50
2023-08-15T14:01:13.184Z,1.50
2023-08-15T14:03:40.764Z,0.50
2023-08-15T14:06:09.187Z,0.53
2023-08-15T14:11:05.931Z,0.60
2023-08-15T14:13:34.225Z,0.83
2023-08-15T14:16:01.749Z,0.53
2023-08-15T14:18:29.071Z,0.50
2023-08-15T14:20:56.490Z,0.50
2023-08-15T14:23:24.335Z,0.50
2023-08-15T14:25:52.528Z,0.60
2023-08-15T14:28:19.889Z,0.50
2023-08-15T14:30:47.496Z,0.50
2023-08-15T14:33:19.664Z,0.50
2023-08-15T14:35:47.081Z,0.50
2023-08-15T14:38:14.540Z,0.50
2023-08-15T14:40:41.909Z,0.90
2023-08-15T14:43:10.108Z,0.70
2023-08-15T14:45:37.631Z,0.50
2023-08-15T14:48:05.290Z,0.60
2023-08-15T14:50:32.717Z,0.57
2023-08-15T14:53:00.157Z,0.50
2023-08-15T14:55:27.540Z,0.57
2023-08-15T14:57:56.076Z,0.53
2023-08-15T15:00:23.767Z,0.50
2023-08-15T15:02:51.821Z,0.50
2023-08-15T15:05:19.252Z,0.50
2023-08-15T15:07:47.543Z,0.50
2023-08-15T15:10:14.974Z,0.50
2023-08-15T15:12:42.632Z,0.50
2023-08-15T15:15:10.235Z,0.50
2023-08-15T15:17:37.704Z,0.50
2023-08-15T15:20:05.709Z,0.60
2023-08-15T15:22:33.094Z,0.50
2023-08-15T15:25:00.561Z,0.50
2023-08-15T15:27:28.112Z,0.50
2023-08-15T15:29:55.452Z,0.50
2023-08-15T15:32:23.305Z,0.50
2023-08-15T15:34:51.106Z,0.47
2023-08-15T15:37:19.481Z,0.57
2023-08-15T15:39:47.947Z,0.50
2023-08-15T15:42:15.307Z,0.47
2023-08-15T15:44:43.676Z,0.60
2023-08-15T15:47:11.790Z,0.60
2023-08-15T15:49:39.152Z,0.60
2023-08-15T15:52:06.907Z,0.50
2023-08-15T15:54:34.202Z,1.33
2023-08-15T15:57:01.670Z,0.60
2023-08-15T15:59:29.610Z,0.50
2023-08-15T16:01:57.226Z,1.93
2023-08-15T16:04:24.910Z,1.47
2023-08-15T16:06:52.723Z,0.60
2023-08-15T16:09:20.506Z,0.50
2023-08-15T16:11:47.889Z,0.50
2023-08-15T16:14:15.318Z,0.50
2023-08-15T16:16:43.887Z,0.50
2023-08-15T16:19:11.313Z,0.60
2023-08-15T16:21:38.620Z,0.60
2023-08-15T16:24:06.523Z,0.60
2023-08-15T16:26:35.235Z,0.60
2023-08-15T16:29:04.062Z,0.70
2023-08-15T16:31:31.423Z,0.50
2023-08-15T16:33:58.831Z,0.50
2023-08-15T16:36:26.342Z,0.70
2023-08-15T16:38:54.112Z,0.50
2023-08-15T16:41:21.784Z,0.60
2023-08-15T16:43:49.530Z,0.50
2023-08-15T16:46:18.313Z,0.40
2023-08-15T16:48:45.776Z,0.50
2023-08-15T16:51:13.199Z,0.57
2023-08-15T16:53:40.605Z,0.50
2023-08-15T16:56:08.004Z,0.60
2023-08-15T16:58:35.500Z,0.50
2023-08-15T17:01:03.234Z,0.57
2023-08-15T17:03:30.909Z,0.70
2023-08-15T17:05:58.413Z,0.63
2023-08-15T17:08:25.876Z,0.60
2023-08-15T17:10:54.069Z,0.40
2023-08-15T17:13:21.809Z,0.60
2023-08-15T17:15:49.195Z,0.60
2023-08-15T17:18:16.515Z,0.50
2023-08-15T17:20:44.022Z,0.50
2023-08-15T17:23:11.533Z,0.50
2023-08-15T17:25:38.977Z,0.80
2023-08-15T17:28:06.608Z,0.50
2023-08-15T17:30:34.152Z,0.70
2023-08-15T17:33:01.710Z,0.50
2023-08-15T17:35:29.868Z,0.60
2023-08-15T17:37:57.304Z,0.50
2023-08-15T17:40:25.090Z,0.50
2023-08-15T17:42:52.840Z,0.50
2023-08-15T17:45:20.280Z,0.57
2023-08-15T17:47:47.766Z,0.60
2023-08-15T17:50:15.201Z,0.50
2023-08-15T17:52:42.691Z,0.60
2023-08-15T17:55:10.633Z,0.60
2023-08-15T17:57:38.303Z,0.50
2023-08-15T18:00:08.198Z,0.60
2023-08-15T18:02:35.690Z,0.60
2023-08-15T18:05:03.088Z,0.60
2023-08-15T18:07:30.459Z,0.53
2023-08-15T18:09:57.708Z,0.50
2023-08-15T18:12:25.181Z,0.53
2023-08-15T18:14:52.852Z,0.50
2023-08-15T18:17:20.198Z,0.50
2023-08-15T18:19:50.119Z,0.50
2023-08-15T18:22:17.785Z,0.60
2023-08-15T18:24:45.290Z,0.53
2023-08-15T18:27:12.700Z,0.50
2023-08-15T18:29:40.057Z,0.60
2023-08-15T18:32:07.585Z,0.83
2023-08-15T18:34:35.165Z,0.60
2023-08-15T18:37:02.711Z,0.50
2023-08-15T18:39:30.068Z,0.60
2023-08-15T18:41:57.607Z,0.50
2023-08-15T18:44:25.070Z,0.50
2023-08-15T18:46:52.978Z,0.50
2023-08-15T18:49:20.619Z,0.80
2023-08-15T18:51:47.960Z,0.60
2023-08-15T18:54:15.375Z,0.50
2023-08-15T18:56:42.759Z,0.60
2023-08-15T18:59:10.340Z,0.50
2023-08-15T19:01:37.732Z,0.50
2023-08-15T19:04:05.411Z,0.50
2023-08-15T19:06:32.773Z,0.60
2023-08-15T19:09:00.207Z,0.50
2023-08-15T19:11:27.511Z,0.60
2023-08-15T19:13:55.062Z,0.50
2023-08-15T19:16:22.879Z,0.40
2023-08-15T19:18:50.322Z,2.00
2023-08-15T19:21:17.808Z,0.50
2023-08-15T19:23:46.600Z,0.40
2023-08-15T19:26:13.902Z,0.50
2023-08-15T19:28:41.451Z,0.80
2023-08-15T19:31:15.014Z,0.60
2023-08-15T19:33:42.854Z,0.50
2023-08-15T19:36:10.448Z,0.60
2023-08-15T19:38:37.910Z,0.50
2023-08-15T19:41:05.577Z,0.50
2023-08-15T19:43:33.041Z,0.50
2023-08-15T19:46:00.467Z,0.50
2023-08-15T19:48:28.492Z,0.50
2023-08-15T19:50:55.982Z,0.47
2023-08-15T19:53:23.497Z,0.40
2023-08-15T19:55:51.268Z,0.40
2023-08-15T19:58:19.009Z,0.40
2023-08-15T20:00:46.595Z,0.50
2023-08-15T20:03:14.301Z,0.50
2023-08-15T20:05:41.748Z,0.50
2023-08-15T20:08:09.099Z,1.03
2023-08-15T20:10:36.511Z,0.70
2023-08-15T20:13:03.935Z,0.50
2023-08-15T20:15:31.411Z,0.57
2023-08-15T20:17:59.258Z,0.60
2023-08-15T20:20:26.977Z,0.43
2023-08-15T20:22:54.484Z,0.50
2023-08-15T20:25:22.084Z,0.50
2023-08-15T20:27:49.503Z,0.40
2023-08-15T20:30:16.827Z,0.50
2023-08-15T20:32:44.344Z,0.50
2023-08-15T20:35:11.783Z,0.60
2023-08-15T20:37:39.389Z,0.60
2023-08-15T20:40:07.438Z,0.60
2023-08-15T20:42:34.921Z,0.60
2023-08-15T20:45:03.243Z,0.60
2023-08-15T20:47:30.637Z,0.60
2023-08-15T20:49:59.910Z,0.50
2023-08-15T20:52:27.193Z,0.50
2023-08-15T20:54:54.591Z,0.50
2023-08-15T20:57:22.304Z,0.53
2023-08-15T20:59:50.057Z,0.50
2023-08-15T21:02:17.528Z,0.50
2023-08-15T21:04:44.965Z,0.60
2023-08-15T21:07:13.850Z,0.50
2023-08-15T21:09:41.189Z,0.57
2023-08-15T21:12:08.886Z,0.50
2023-08-15T21:14:36.422Z,0.80
2023-08-15T21:17:03.736Z,0.50
2023-08-15T21:19:31.400Z,0.90
2023-08-15T21:21:59.063Z,0.53
2023-08-15T21:24:26.395Z,0.50
2023-08-15T21:26:54.159Z,0.40
2023-08-15T21:29:22.021Z,0.40
2023-08-15T21:31:50.999Z,0.50
2023-08-15T21:34:18.586Z,0.50
2023-08-15T21:36:46.257Z,0.87
2023-08-15T21:39:13.863Z,1.20
2023-08-15T21:41:41.150Z,0.60
2023-08-15T21:44:08.491Z,0.53
2023-08-15T21:46:35.911Z,2.73
2023-08-15T21:49:03.333Z,0.50
2023-08-15T21:51:30.733Z,0.50
2023-08-15T21:53:58.228Z,0.50
2023-08-15T21:56:25.755Z,0.50
2023-08-15T21:58:53.737Z,0.50
2023-08-15T22:01:22.524Z,0.40
2023-08-15T22:03:50.236Z,0.50
2023-08-15T22:06:18.029Z,0.40
2023-08-15T22:08:45.405Z,0.50
2023-08-15T22:11:12.956Z,0.60
2023-08-15T22:13:40.334Z,0.50
2023-08-15T22:16:07.957Z,0.50
2023-08-15T22:18:35.612Z,0.60
2023-08-15T22:21:03.130Z,0.50
2023-08-15T22:23:30.535Z,0.50
2023-08-15T22:25:58.009Z,0.53
2023-08-15T22:28:25.646Z,0.40
2023-08-15T22:30:53.525Z,0.50
2023-08-15T22:33:20.813Z,0.50
2023-08-15T22:35:48.257Z,0.50
2023-08-15T22:38:15.959Z,0.83
2023-08-15T22:40:43.285Z,0.50
2023-08-15T22:43:10.620Z,0.70
2023-08-15T22:45:38.285Z,0.60
2023-08-15T22:48:06.018Z,0.70
2023-08-15T22:50:33.790Z,0.60
2023-08-15T22:53:01.373Z,1.60
2023-08-15T22:55:30.389Z,0.50
2023-08-15T22:57:57.745Z,0.50
2023-08-15T23:00:25.456Z,0.73
2023-08-15T23:02:53.655Z,0.50
2023-08-15T23:05:21.222Z,0.50
2023-08-15T23:07:49.388Z,0.50
2023-08-15T23:10:16.851Z,0.50
2023-08-15T23:12:44.197Z,0.50
2023-08-15T23:15:11.858Z,0.60
2023-08-15T23:17:39.373Z,0.60
2023-08-15T23:20:09.423Z,0.60
2023-08-15T23:22:37.023Z,0.50
2023-08-15T23:25:04.815Z,0.50
2023-08-15T23:27:32.191Z,0.50
2023-08-15T23:29:59.650Z,0.70
2023-08-15T23:32:27.438Z,0.50
2023-08-15T23:34:55.093Z,0.50
2023-08-15T23:37:22.974Z,0.50
2023-08-15T23:39:50.547Z,0.43
2023-08-15T23:42:17.955Z,0.50
2023-08-15T23:44:45.308Z,0.63
2023-08-15T23:47:12.642Z,0.60
2023-08-15T23:49:40.080Z,0.70
2023-08-15T23:52:07.601Z,0.60
2023-08-15T23:54:35.028Z,0.60
2023-08-15T23:57:05.039Z,0.53
2023-08-15T23:59:32.471Z,0.80
